Etusivu
METAR-TAF:

METAR-TAF

Lentoasemat :

Guernsey,

Leveyspiiri: 49-26N, Pituuspiiri: 002-36W, korkeus merenpinnasta: 102 m

Tämänhetkinen sää

Tämä raportti tehtiin 46 minuuttia sitten, kello 05.20 UTC
Tuuli 5 kn koillisesta
Lämpötila 8°C
Kosteus 93%
Ilmanpaine 1032 hPa
Näkyvyys: 7000 m

METAR: EGJB 240520Z 04005KT 7000 NSC 08/07 Q1032

Aika: 06:06 (06:06 UTC)

Sääennuste

Tämä raportti tehtiin 1 tunti ja 10 minuuttia sitten, kello 04.56 UTC
Ennuste voimassa 24. päivästä klo 06 UTC - 24. päivään klo 15 UTC
Tuuli 5 kn idästä
Näkyvyys: 8000 m

TAF: EGJB 240456Z 2406/2415 10005KT 8000 NSC

Säähavainnot ja -ennusteet yli 4000 lentoasemalta (METAR- ja TAF-raportit).

Käytössä olevat sääasemat on merkitty karttaan keltaisilla ja punaisilla pisteillä.

Aseta hiiri pisteen päälle nähdäksesi sääaseman nimen.

Klikkaa sitten nähdäksesi säähavainnot ja -ennusteet.

Kartan vaihtaminen: klikkaa mustalla rastilla varustettuja vihreitä pisteitä, niin voit zoomata sisään; viivalla varustettua vihreää pistettä, niin voit zoomata ulos tai vihreitä nuolia, niin pääset viereisille kartoille.


METAR-TAF: